sensor_id;sensor_type;location;lat;lon;timestamp;P1;durP1;ratioP1;P2;durP2;ratioP2
3155;SDS011;1588;50.892;7.082;2023-07-31T00:04:27;11.73;;;3.53;;
3155;SDS011;1588;50.892;7.082;2023-07-31T00:09:29;5.87;;;2.63;;
3155;SDS011;1588;50.892;7.082;2023-07-31T00:14:33;7.33;;;3.27;;
3155;SDS011;1588;50.892;7.082;2023-07-31T00:19:36;6.43;;;3.13;;
3155;SDS011;1588;50.892;7.082;2023-07-31T00:24:38;12.37;;;3.27;;
3155;SDS011;1588;50.892;7.082;2023-07-31T00:29:42;7.63;;;3.33;;
3155;SDS011;1588;50.892;7.082;2023-07-31T00:34:45;7.53;;;2.93;;
3155;SDS011;1588;50.892;7.082;2023-07-31T00:39:47;7.93;;;3.63;;
3155;SDS011;1588;50.892;7.082;2023-07-31T00:44:51;10.33;;;2.63;;
3155;SDS011;1588;50.892;7.082;2023-07-31T00:49:54;5.70;;;2.53;;
3155;SDS011;1588;50.892;7.082;2023-07-31T00:54:57;5.03;;;2.87;;
3155;SDS011;1588;50.892;7.082;2023-07-31T01:00:05;6.30;;;2.43;;
3155;SDS011;1588;50.892;7.082;2023-07-31T01:05:08;5.43;;;2.33;;
3155;SDS011;1588;50.892;7.082;2023-07-31T01:10:15;10.20;;;2.70;;
3155;SDS011;1588;50.892;7.082;2023-07-31T01:15:23;5.63;;;3.00;;
3155;SDS011;1588;50.892;7.082;2023-07-31T01:20:26;4.67;;;2.70;;
3155;SDS011;1588;50.892;7.082;2023-07-31T01:25:43;5.60;;;2.80;;
3155;SDS011;1588;50.892;7.082;2023-07-31T01:30:56;5.87;;;2.73;;
3155;SDS011;1588;50.892;7.082;2023-07-31T01:36:01;8.77;;;4.20;;
3155;SDS011;1588;50.892;7.082;2023-07-31T01:41:06;4.23;;;2.60;;
3155;SDS011;1588;50.892;7.082;2023-07-31T01:46:09;5.67;;;2.83;;
3155;SDS011;1588;50.892;7.082;2023-07-31T01:51:11;5.00;;;2.90;;
3155;SDS011;1588;50.892;7.082;2023-07-31T01:56:15;9.33;;;2.30;;
3155;SDS011;1588;50.892;7.082;2023-07-31T02:01:18;5.00;;;2.73;;
3155;SDS011;1588;50.892;7.082;2023-07-31T02:06:22;4.63;;;2.77;;
3155;SDS011;1588;50.892;7.082;2023-07-31T02:11:26;10.23;;;2.50;;
3155;SDS011;1588;50.892;7.082;2023-07-31T02:16:28;5.50;;;3.27;;
3155;SDS011;1588;50.892;7.082;2023-07-31T02:21:31;4.97;;;2.77;;
3155;SDS011;1588;50.892;7.082;2023-07-31T02:26:35;5.30;;;2.97;;
3155;SDS011;1588;50.892;7.082;2023-07-31T02:31:40;4.77;;;2.50;;
3155;SDS011;1588;50.892;7.082;2023-07-31T02:36:42;6.10;;;2.37;;
3155;SDS011;1588;50.892;7.082;2023-07-31T02:41:46;6.00;;;2.83;;
3155;SDS011;1588;50.892;7.082;2023-07-31T02:46:49;6.77;;;2.40;;
3155;SDS011;1588;50.892;7.082;2023-07-31T02:51:51;6.90;;;2.10;;
3155;SDS011;1588;50.892;7.082;2023-07-31T02:56:55;5.83;;;2.83;;
3155;SDS011;1588;50.892;7.082;2023-07-31T03:01:58;4.03;;;2.50;;
3155;SDS011;1588;50.892;7.082;2023-07-31T03:07:00;5.40;;;2.77;;
3155;SDS011;1588;50.892;7.082;2023-07-31T03:12:07;12.63;;;2.67;;
3155;SDS011;1588;50.892;7.082;2023-07-31T03:17:11;8.27;;;2.93;;
3155;SDS011;1588;50.892;7.082;2023-07-31T03:22:13;4.20;;;2.77;;
3155;SDS011;1588;50.892;7.082;2023-07-31T03:27:17;6.30;;;2.57;;
3155;SDS011;1588;50.892;7.082;2023-07-31T03:32:20;7.53;;;2.60;;
3155;SDS011;1588;50.892;7.082;2023-07-31T03:37:23;6.43;;;2.43;;
3155;SDS011;1588;50.892;7.082;2023-07-31T03:42:31;14.53;;;3.40;;
3155;SDS011;1588;50.892;7.082;2023-07-31T03:47:33;4.20;;;3.43;;
3155;SDS011;1588;50.892;7.082;2023-07-31T03:52:36;4.40;;;3.33;;
3155;SDS011;1588;50.892;7.082;2023-07-31T03:57:40;13.77;;;4.40;;
3155;SDS011;1588;50.892;7.082;2023-07-31T04:02:43;12.03;;;3.60;;
3155;SDS011;1588;50.892;7.082;2023-07-31T04:07:45;5.10;;;3.80;;
3155;SDS011;1588;50.892;7.082;2023-07-31T04:12:49;19.90;;;3.43;;
3155;SDS011;1588;50.892;7.082;2023-07-31T04:17:52;3.90;;;2.97;;
3155;SDS011;1588;50.892;7.082;2023-07-31T04:22:54;5.03;;;3.10;;
3155;SDS011;1588;50.892;7.082;2023-07-31T04:27:58;6.70;;;2.73;;
3155;SDS011;1588;50.892;7.082;2023-07-31T04:33:01;9.07;;;3.20;;
3155;SDS011;1588;50.892;7.082;2023-07-31T04:38:03;6.30;;;2.80;;
3155;SDS011;1588;50.892;7.082;2023-07-31T04:43:07;16.60;;;3.57;;
3155;SDS011;1588;50.892;7.082;2023-07-31T04:48:10;6.13;;;2.93;;
3155;SDS011;1588;50.892;7.082;2023-07-31T04:53:12;4.37;;;2.77;;
3155;SDS011;1588;50.892;7.082;2023-07-31T04:58:16;4.97;;;3.00;;
3155;SDS011;1588;50.892;7.082;2023-07-31T05:03:19;6.90;;;2.97;;
3155;SDS011;1588;50.892;7.082;2023-07-31T05:08:21;4.53;;;2.73;;
3155;SDS011;1588;50.892;7.082;2023-07-31T05:13:25;3.97;;;3.13;;
3155;SDS011;1588;50.892;7.082;2023-07-31T05:18:27;16.33;;;3.33;;
3155;SDS011;1588;50.892;7.082;2023-07-31T05:23:30;10.70;;;3.73;;
3155;SDS011;1588;50.892;7.082;2023-07-31T05:28:35;4.70;;;3.00;;
3155;SDS011;1588;50.892;7.082;2023-07-31T05:33:38;5.70;;;2.90;;
3155;SDS011;1588;50.892;7.082;2023-07-31T05:38:40;6.80;;;3.30;;
3155;SDS011;1588;50.892;7.082;2023-07-31T05:43:46;8.20;;;4.80;;
3155;SDS011;1588;50.892;7.082;2023-07-31T05:48:48;8.77;;;4.13;;
3155;SDS011;1588;50.892;7.082;2023-07-31T05:53:51;9.83;;;3.10;;
3155;SDS011;1588;50.892;7.082;2023-07-31T05:58:55;6.50;;;3.40;;
3155;SDS011;1588;50.892;7.082;2023-07-31T06:03:58;6.43;;;2.90;;
3155;SDS011;1588;50.892;7.082;2023-07-31T06:09:04;7.83;;;3.23;;
3155;SDS011;1588;50.892;7.082;2023-07-31T06:14:08;7.20;;;3.20;;
3155;SDS011;1588;50.892;7.082;2023-07-31T06:19:10;9.77;;;4.07;;
3155;SDS011;1588;50.892;7.082;2023-07-31T06:24:13;8.77;;;3.97;;
3155;SDS011;1588;50.892;7.082;2023-07-31T06:29:20;7.50;;;4.03;;
3155;SDS011;1588;50.892;7.082;2023-07-31T06:34:23;11.63;;;3.20;;
3155;SDS011;1588;50.892;7.082;2023-07-31T06:39:25;13.73;;;3.60;;
3155;SDS011;1588;50.892;7.082;2023-07-31T06:44:36;9.90;;;4.23;;
3155;SDS011;1588;50.892;7.082;2023-07-31T06:49:38;11.50;;;3.60;;
3155;SDS011;1588;50.892;7.082;2023-07-31T06:54:41;8.80;;;3.60;;
3155;SDS011;1588;50.892;7.082;2023-07-31T06:59:44;7.80;;;3.60;;
3155;SDS011;1588;50.892;7.082;2023-07-31T07:04:48;7.97;;;3.13;;
3155;SDS011;1588;50.892;7.082;2023-07-31T07:09:53;11.63;;;3.80;;
3155;SDS011;1588;50.892;7.082;2023-07-31T07:14:57;7.37;;;4.10;;
3155;SDS011;1588;50.892;7.082;2023-07-31T07:20:00;5.43;;;4.13;;
3155;SDS011;1588;50.892;7.082;2023-07-31T07:25:04;9.63;;;3.97;;
3155;SDS011;1588;50.892;7.082;2023-07-31T07:30:09;6.97;;;3.50;;
3155;SDS011;1588;50.892;7.082;2023-07-31T07:35:12;13.27;;;3.77;;
3155;SDS011;1588;50.892;7.082;2023-07-31T07:40:15;5.17;;;2.87;;
3155;SDS011;1588;50.892;7.082;2023-07-31T07:45:19;7.37;;;3.60;;
3155;SDS011;1588;50.892;7.082;2023-07-31T07:50:22;7.20;;;3.10;;
3155;SDS011;1588;50.892;7.082;2023-07-31T07:55:24;5.37;;;3.33;;
3155;SDS011;1588;50.892;7.082;2023-07-31T08:00:28;7.47;;;3.20;;
3155;SDS011;1588;50.892;7.082;2023-07-31T08:05:31;5.90;;;3.33;;
3155;SDS011;1588;50.892;7.082;2023-07-31T08:10:35;5.10;;;3.07;;
3155;SDS011;1588;50.892;7.082;2023-07-31T08:15:39;7.87;;;3.80;;
3155;SDS011;1588;50.892;7.082;2023-07-31T08:20:43;11.33;;;3.57;;
3155;SDS011;1588;50.892;7.082;2023-07-31T08:25:45;6.07;;;3.10;;
3155;SDS011;1588;50.892;7.082;2023-07-31T08:30:51;7.77;;;3.30;;
3155;SDS011;1588;50.892;7.082;2023-07-31T08:35:54;8.10;;;4.00;;
3155;SDS011;1588;50.892;7.082;2023-07-31T08:40:57;8.00;;;3.07;;
3155;SDS011;1588;50.892;7.082;2023-07-31T08:46:01;10.43;;;2.97;;
3155;SDS011;1588;50.892;7.082;2023-07-31T08:51:04;5.53;;;3.90;;
3155;SDS011;1588;50.892;7.082;2023-07-31T08:56:10;4.87;;;3.00;;
3155;SDS011;1588;50.892;7.082;2023-07-31T09:01:17;5.67;;;3.40;;
3155;SDS011;1588;50.892;7.082;2023-07-31T09:06:20;4.60;;;3.07;;
3155;SDS011;1588;50.892;7.082;2023-07-31T09:11:25;7.40;;;3.20;;
3155;SDS011;1588;50.892;7.082;2023-07-31T09:16:31;3.67;;;3.07;;
3155;SDS011;1588;50.892;7.082;2023-07-31T09:21:35;6.10;;;3.20;;
3155;SDS011;1588;50.892;7.082;2023-07-31T09:26:50;5.17;;;3.30;;
3155;SDS011;1588;50.892;7.082;2023-07-31T09:31:57;7.30;;;3.47;;
3155;SDS011;1588;50.892;7.082;2023-07-31T09:37:03;9.43;;;3.30;;
3155;SDS011;1588;50.892;7.082;2023-07-31T09:42:07;11.60;;;4.00;;
3155;SDS011;1588;50.892;7.082;2023-07-31T09:47:22;6.70;;;3.87;;
3155;SDS011;1588;50.892;7.082;2023-07-31T09:52:26;9.20;;;2.90;;
3155;SDS011;1588;50.892;7.082;2023-07-31T09:57:28;6.17;;;3.47;;
3155;SDS011;1588;50.892;7.082;2023-07-31T10:02:33;12.53;;;4.20;;
3155;SDS011;1588;50.892;7.082;2023-07-31T10:07:36;6.80;;;3.10;;
3155;SDS011;1588;50.892;7.082;2023-07-31T10:12:41;7.47;;;2.93;;
3155;SDS011;1588;50.892;7.082;2023-07-31T10:17:47;6.87;;;3.40;;
3155;SDS011;1588;50.892;7.082;2023-07-31T10:22:55;5.30;;;3.17;;
3155;SDS011;1588;50.892;7.082;2023-07-31T10:27:59;8.70;;;3.07;;
3155;SDS011;1588;50.892;7.082;2023-07-31T10:33:03;7.60;;;3.30;;
3155;SDS011;1588;50.892;7.082;2023-07-31T10:38:11;11.57;;;3.00;;
3155;SDS011;1588;50.892;7.082;2023-07-31T10:43:23;9.00;;;3.90;;
3155;SDS011;1588;50.892;7.082;2023-07-31T10:48:28;12.90;;;4.70;;
3155;SDS011;1588;50.892;7.082;2023-07-31T10:53:37;11.50;;;4.10;;
3155;SDS011;1588;50.892;7.082;2023-07-31T10:58:42;6.50;;;2.67;;
3155;SDS011;1588;50.892;7.082;2023-07-31T11:03:48;5.60;;;2.60;;
3155;SDS011;1588;50.892;7.082;2023-07-31T11:08:52;4.60;;;2.60;;
3155;SDS011;1588;50.892;7.082;2023-07-31T11:13:55;4.50;;;1.97;;
3155;SDS011;1588;50.892;7.082;2023-07-31T11:18:59;2.93;;;2.40;;
3155;SDS011;1588;50.892;7.082;2023-07-31T11:24:01;2.33;;;1.60;;
3155;SDS011;1588;50.892;7.082;2023-07-31T11:29:10;1.77;;;1.67;;
3155;SDS011;1588;50.892;7.082;2023-07-31T11:34:19;2.70;;;2.10;;
3155;SDS011;1588;50.892;7.082;2023-07-31T11:39:29;3.80;;;2.23;;
3155;SDS011;1588;50.892;7.082;2023-07-31T11:44:37;2.27;;;1.50;;
3155;SDS011;1588;50.892;7.082;2023-07-31T11:49:41;2.00;;;1.43;;
3155;SDS011;1588;50.892;7.082;2023-07-31T11:54:45;2.03;;;1.57;;
3155;SDS011;1588;50.892;7.082;2023-07-31T11:59:48;0.70;;;0.70;;
3155;SDS011;1588;50.892;7.082;2023-07-31T12:04:52;1.40;;;1.20;;
3155;SDS011;1588;50.892;7.082;2023-07-31T12:10:02;1.00;;;0.90;;
3155;SDS011;1588;50.892;7.082;2023-07-31T12:15:13;1.73;;;1.23;;
3155;SDS011;1588;50.892;7.082;2023-07-31T12:20:21;2.23;;;1.00;;
3155;SDS011;1588;50.892;7.082;2023-07-31T12:25:28;2.13;;;2.03;;
3155;SDS011;1588;50.892;7.082;2023-07-31T12:30:32;1.50;;;1.40;;
3155;SDS011;1588;50.892;7.082;2023-07-31T12:35:38;1.50;;;1.40;;
3155;SDS011;1588;50.892;7.082;2023-07-31T12:40:43;2.50;;;1.67;;
3155;SDS011;1588;50.892;7.082;2023-07-31T12:45:46;2.37;;;1.77;;
3155;SDS011;1588;50.892;7.082;2023-07-31T12:50:50;1.70;;;1.60;;
3155;SDS011;1588;50.892;7.082;2023-07-31T12:55:53;2.50;;;1.40;;
3155;SDS011;1588;50.892;7.082;2023-07-31T13:00:56;4.60;;;2.30;;
3155;SDS011;1588;50.892;7.082;2023-07-31T13:06:00;3.93;;;2.50;;
3155;SDS011;1588;50.892;7.082;2023-07-31T13:11:02;6.70;;;2.20;;
3155;SDS011;1588;50.892;7.082;2023-07-31T13:16:05;3.23;;;2.20;;
3155;SDS011;1588;50.892;7.082;2023-07-31T13:21:09;3.33;;;2.80;;
3155;SDS011;1588;50.892;7.082;2023-07-31T13:26:12;9.67;;;3.07;;
3155;SDS011;1588;50.892;7.082;2023-07-31T13:31:14;4.20;;;3.00;;
3155;SDS011;1588;50.892;7.082;2023-07-31T13:36:18;4.53;;;3.37;;
3155;SDS011;1588;50.892;7.082;2023-07-31T13:41:21;3.87;;;2.60;;
3155;SDS011;1588;50.892;7.082;2023-07-31T13:46:23;3.87;;;2.47;;
3155;SDS011;1588;50.892;7.082;2023-07-31T13:51:28;4.23;;;2.10;;
3155;SDS011;1588;50.892;7.082;2023-07-31T13:56:30;1.93;;;1.80;;
3155;SDS011;1588;50.892;7.082;2023-07-31T14:01:32;3.63;;;3.30;;
3155;SDS011;1588;50.892;7.082;2023-07-31T14:06:36;2.67;;;2.47;;
3155;SDS011;1588;50.892;7.082;2023-07-31T14:11:39;2.23;;;2.03;;
3155;SDS011;1588;50.892;7.082;2023-07-31T14:16:42;3.70;;;2.30;;
3155;SDS011;1588;50.892;7.082;2023-07-31T14:21:46;1.77;;;1.60;;
3155;SDS011;1588;50.892;7.082;2023-07-31T14:26:48;3.00;;;2.03;;
3155;SDS011;1588;50.892;7.082;2023-07-31T14:31:50;3.93;;;2.33;;
3155;SDS011;1588;50.892;7.082;2023-07-31T14:36:54;3.30;;;2.57;;
3155;SDS011;1588;50.892;7.082;2023-07-31T14:41:57;4.03;;;2.93;;
3155;SDS011;1588;50.892;7.082;2023-07-31T14:47:00;2.57;;;2.23;;
3155;SDS011;1588;50.892;7.082;2023-07-31T14:52:04;3.73;;;2.47;;
3155;SDS011;1588;50.892;7.082;2023-07-31T14:57:07;2.50;;;1.90;;
3155;SDS011;1588;50.892;7.082;2023-07-31T15:02:10;2.80;;;2.33;;
3155;SDS011;1588;50.892;7.082;2023-07-31T15:07:14;2.87;;;2.03;;
3155;SDS011;1588;50.892;7.082;2023-07-31T15:12:17;3.33;;;2.30;;
3155;SDS011;1588;50.892;7.082;2023-07-31T15:17:19;2.20;;;2.00;;
3155;SDS011;1588;50.892;7.082;2023-07-31T15:34:36;6.33;;;3.30;;
3155;SDS011;1588;50.892;7.082;2023-07-31T15:39:46;4.40;;;3.07;;
3155;SDS011;1588;50.892;7.082;2023-07-31T15:44:52;5.90;;;2.87;;
3155;SDS011;1588;50.892;7.082;2023-07-31T15:49:56;4.30;;;2.50;;
3155;SDS011;1588;50.892;7.082;2023-07-31T15:54:58;3.57;;;2.60;;
3155;SDS011;1588;50.892;7.082;2023-07-31T16:00:01;4.37;;;2.70;;
3155;SDS011;1588;50.892;7.082;2023-07-31T16:05:06;3.00;;;2.70;;
3155;SDS011;1588;50.892;7.082;2023-07-31T16:10:09;4.90;;;2.87;;
3155;SDS011;1588;50.892;7.082;2023-07-31T16:15:11;3.10;;;2.17;;
3155;SDS011;1588;50.892;7.082;2023-07-31T16:20:15;5.33;;;3.43;;
3155;SDS011;1588;50.892;7.082;2023-07-31T16:25:18;6.03;;;2.90;;
3155;SDS011;1588;50.892;7.082;2023-07-31T16:30:20;6.67;;;3.53;;
3155;SDS011;1588;50.892;7.082;2023-07-31T16:35:24;3.30;;;2.77;;
3155;SDS011;1588;50.892;7.082;2023-07-31T16:40:27;5.10;;;3.43;;
3155;SDS011;1588;50.892;7.082;2023-07-31T16:45:30;7.80;;;3.60;;
3155;SDS011;1588;50.892;7.082;2023-07-31T16:50:34;3.63;;;2.90;;
3155;SDS011;1588;50.892;7.082;2023-07-31T16:55:40;4.27;;;3.37;;
3155;SDS011;1588;50.892;7.082;2023-07-31T17:00:43;4.83;;;3.57;;
3155;SDS011;1588;50.892;7.082;2023-07-31T17:05:47;54.57;;;38.27;;
3155;SDS011;1588;50.892;7.082;2023-07-31T17:10:49;26.93;;;17.93;;
3155;SDS011;1588;50.892;7.082;2023-07-31T17:15:52;9.90;;;3.90;;
3155;SDS011;1588;50.892;7.082;2023-07-31T17:20:56;9.23;;;5.20;;
3155;SDS011;1588;50.892;7.082;2023-07-31T17:25:58;4.50;;;3.83;;
3155;SDS011;1588;50.892;7.082;2023-07-31T17:31:01;7.97;;;5.13;;
3155;SDS011;1588;50.892;7.082;2023-07-31T17:36:12;7.97;;;4.27;;
3155;SDS011;1588;50.892;7.082;2023-07-31T17:41:28;5.53;;;4.27;;
3155;SDS011;1588;50.892;7.082;2023-07-31T17:46:31;5.40;;;4.20;;
3155;SDS011;1588;50.892;7.082;2023-07-31T17:51:35;10.07;;;4.30;;
3155;SDS011;1588;50.892;7.082;2023-07-31T17:56:39;5.97;;;3.80;;
3155;SDS011;1588;50.892;7.082;2023-07-31T18:01:41;5.37;;;3.33;;
3155;SDS011;1588;50.892;7.082;2023-07-31T18:06:45;13.27;;;3.37;;
3155;SDS011;1588;50.892;7.082;2023-07-31T18:11:48;7.27;;;3.70;;
3155;SDS011;1588;50.892;7.082;2023-07-31T18:16:50;5.67;;;4.00;;
3155;SDS011;1588;50.892;7.082;2023-07-31T18:21:54;5.83;;;3.27;;
3155;SDS011;1588;50.892;7.082;2023-07-31T18:26:56;6.17;;;3.50;;
3155;SDS011;1588;50.892;7.082;2023-07-31T18:31:59;7.70;;;3.10;;
3155;SDS011;1588;50.892;7.082;2023-07-31T18:37:03;4.10;;;2.97;;
3155;SDS011;1588;50.892;7.082;2023-07-31T18:42:06;2.90;;;2.43;;
3155;SDS011;1588;50.892;7.082;2023-07-31T18:47:12;5.00;;;2.17;;
3155;SDS011;1588;50.892;7.082;2023-07-31T18:52:16;3.03;;;1.90;;
3155;SDS011;1588;50.892;7.082;2023-07-31T18:57:19;2.73;;;1.80;;
3155;SDS011;1588;50.892;7.082;2023-07-31T19:02:21;5.20;;;1.70;;
3155;SDS011;1588;50.892;7.082;2023-07-31T19:07:27;3.60;;;1.67;;
3155;SDS011;1588;50.892;7.082;2023-07-31T19:12:30;1.53;;;1.40;;
3155;SDS011;1588;50.892;7.082;2023-07-31T19:17:32;4.10;;;1.83;;
3155;SDS011;1588;50.892;7.082;2023-07-31T19:22:38;1.67;;;1.23;;
3155;SDS011;1588;50.892;7.082;2023-07-31T19:27:40;5.07;;;2.03;;
3155;SDS011;1588;50.892;7.082;2023-07-31T19:32:43;9.57;;;1.43;;
3155;SDS011;1588;50.892;7.082;2023-07-31T19:37:46;4.43;;;1.70;;
3155;SDS011;1588;50.892;7.082;2023-07-31T19:42:49;4.43;;;1.70;;
3155;SDS011;1588;50.892;7.082;2023-07-31T19:47:55;1.80;;;1.50;;
3155;SDS011;1588;50.892;7.082;2023-07-31T19:52:59;3.97;;;1.47;;
3155;SDS011;1588;50.892;7.082;2023-07-31T19:58:02;1.57;;;1.47;;
3155;SDS011;1588;50.892;7.082;2023-07-31T20:03:05;3.63;;;2.23;;
3155;SDS011;1588;50.892;7.082;2023-07-31T20:08:09;1.57;;;1.37;;
3155;SDS011;1588;50.892;7.082;2023-07-31T20:13:35;1.63;;;0.90;;
3155;SDS011;1588;50.892;7.082;2023-07-31T20:19:17;1.67;;;1.10;;
3155;SDS011;1588;50.892;7.082;2023-07-31T20:24:21;4.50;;;1.20;;
3155;SDS011;1588;50.892;7.082;2023-07-31T20:29:23;7.10;;;1.13;;
3155;SDS011;1588;50.892;7.082;2023-07-31T20:34:26;2.20;;;1.50;;
3155;SDS011;1588;50.892;7.082;2023-07-31T20:39:30;2.00;;;1.40;;
3155;SDS011;1588;50.892;7.082;2023-07-31T20:44:34;1.70;;;1.50;;
3155;SDS011;1588;50.892;7.082;2023-07-31T20:49:37;3.00;;;1.20;;
3155;SDS011;1588;50.892;7.082;2023-07-31T20:54:46;3.00;;;1.60;;
3155;SDS011;1588;50.892;7.082;2023-07-31T20:59:49;2.20;;;1.70;;
3155;SDS011;1588;50.892;7.082;2023-07-31T21:04:52;2.30;;;1.70;;
3155;SDS011;1588;50.892;7.082;2023-07-31T21:09:56;4.27;;;1.50;;
3155;SDS011;1588;50.892;7.082;2023-07-31T21:14:58;11.70;;;2.20;;
3155;SDS011;1588;50.892;7.082;2023-07-31T21:20:01;1.90;;;1.50;;
3155;SDS011;1588;50.892;7.082;2023-07-31T21:25:06;2.90;;;2.07;;
3155;SDS011;1588;50.892;7.082;2023-07-31T21:30:09;1.83;;;1.67;;
3155;SDS011;1588;50.892;7.082;2023-07-31T21:35:12;2.53;;;1.90;;
3155;SDS011;1588;50.892;7.082;2023-07-31T21:40:16;3.87;;;1.97;;
3155;SDS011;1588;50.892;7.082;2023-07-31T21:45:18;3.23;;;1.70;;
3155;SDS011;1588;50.892;7.082;2023-07-31T21:50:22;3.40;;;2.43;;
3155;SDS011;1588;50.892;7.082;2023-07-31T21:55:27;2.27;;;1.80;;
3155;SDS011;1588;50.892;7.082;2023-07-31T22:00:30;3.20;;;1.83;;
3155;SDS011;1588;50.892;7.082;2023-07-31T22:05:32;2.80;;;2.00;;
3155;SDS011;1588;50.892;7.082;2023-07-31T22:10:42;1.93;;;1.57;;
3155;SDS011;1588;50.892;7.082;2023-07-31T22:15:51;3.13;;;1.87;;
3155;SDS011;1588;50.892;7.082;2023-07-31T22:21:03;19.33;;;1.80;;
3155;SDS011;1588;50.892;7.082;2023-07-31T22:26:16;3.37;;;2.30;;
3155;SDS011;1588;50.892;7.082;2023-07-31T22:31:19;3.63;;;2.20;;
3155;SDS011;1588;50.892;7.082;2023-07-31T22:36:22;2.60;;;1.73;;
3155;SDS011;1588;50.892;7.082;2023-07-31T22:41:26;8.33;;;2.20;;
3155;SDS011;1588;50.892;7.082;2023-07-31T22:46:28;3.70;;;1.80;;
3155;SDS011;1588;50.892;7.082;2023-07-31T22:51:31;3.07;;;1.50;;
3155;SDS011;1588;50.892;7.082;2023-07-31T22:56:35;1.50;;;1.40;;
3155;SDS011;1588;50.892;7.082;2023-07-31T23:01:38;1.93;;;1.50;;
3155;SDS011;1588;50.892;7.082;2023-07-31T23:06:40;1.57;;;1.30;;
3155;SDS011;1588;50.892;7.082;2023-07-31T23:11:44;3.30;;;1.43;;
3155;SDS011;1588;50.892;7.082;2023-07-31T23:16:50;7.93;;;1.43;;
3155;SDS011;1588;50.892;7.082;2023-07-31T23:21:55;5.50;;;2.00;;
3155;SDS011;1588;50.892;7.082;2023-07-31T23:26:59;1.70;;;1.40;;
3155;SDS011;1588;50.892;7.082;2023-07-31T23:32:02;3.80;;;2.20;;
3155;SDS011;1588;50.892;7.082;2023-07-31T23:37:04;5.00;;;2.67;;
3155;SDS011;1588;50.892;7.082;2023-07-31T23:42:08;3.80;;;2.20;;
3155;SDS011;1588;50.892;7.082;2023-07-31T23:47:11;10.50;;;3.60;;
3155;SDS011;1588;50.892;7.082;2023-07-31T23:52:14;111.87;;;53.57;;
3155;SDS011;1588;50.892;7.082;2023-07-31T23:57:18;127.43;;;63.70;;
